Time;durP1;ratioP1;P1;durP2;ratioP2;P2;SDS_P1;SDS_P2;PMS_P1;PMS_P2;Temp;Humidity;BMP_temperature;BMP_pressure;BME280_temperature;BME280_humidity;BME280_pressure;Samples;Min_cycle;Max_cycle;Signal;HPM_P1;HPM_P2
2022/11/19 00:01:14;;;;;;;8.25;4.82;;;1.10;99.90;;;;;;5025387;28;20107;-68
2022/11/19 00:03:41;;;;;;;6.43;4.50;;;0.80;99.90;;;;;;5025115;28;20037;-66
2022/11/19 00:06:09;;;;;;;5.85;4.28;;;1.00;99.90;;;;;;5024720;28;20315;-69
2022/11/19 00:08:35;;;;;;;8.30;4.70;;;0.70;99.90;;;;;;5007415;28;20045;-70
2022/11/19 00:11:10;;;;;;;5.72;3.85;;;0.70;99.90;;;;;;5025195;28;20045;-70
2022/11/19 00:13:37;;;;;;;6.40;4.75;;;0.70;99.90;;;;;;5024735;28;20091;-70
2022/11/19 00:16:08;;;;;;;5.25;3.65;;;0.70;99.90;;;;;;5024882;28;20437;-70
2022/11/19 00:18:34;;;;;;;6.80;4.47;;;0.50;99.90;;;;;;5025375;28;20152;-68
2022/11/19 00:21:08;;;;;;;6.57;4.55;;;0.40;99.90;;;;;;5007424;28;20564;-68
2022/11/19 00:23:35;;;;;;;6.07;3.90;;;0.50;99.90;;;;;;5007396;28;20607;-70
2022/11/19 00:26:09;;;;;;;6.22;4.03;;;0.50;99.90;;;;;;5007350;28;20592;-70
2022/11/19 00:28:35;;;;;;;6.50;4.55;;;0.50;99.90;;;;;;5006685;28;20140;-67
2022/11/19 00:31:07;;;;;;;6.10;3.75;;;0.50;99.90;;;;;;5024236;28;20042;-70
2022/11/19 00:33:33;;;;;;;6.95;4.38;;;1.30;99.90;;;;;;5024906;28;20132;-68
2022/11/19 00:36:00;;;;;;;6.00;4.43;;;0.40;99.90;;;;;;5024792;28;20667;-69
2022/11/19 00:38:26;;;;;;;6.82;4.78;;;0.50;99.90;;;;;;5024263;28;20037;-67
2022/11/19 00:40:52;;;;;;;6.30;4.13;;;0.50;99.90;;;;;;5025240;28;20072;-67
2022/11/19 00:46:03;;;;;;;6.97;4.97;;;1.30;99.90;;;;;;5024266;28;20390;-66
2022/11/19 00:48:29;;;;;;;6.32;4.93;;;0.30;99.90;;;;;;5025167;28;20056;-69
2022/11/19 00:50:54;;;;;;;7.90;4.60;;;0.40;99.90;;;;;;5024959;28;20041;-69
2022/11/19 00:53:20;;;;;;;6.60;4.20;;;0.30;99.90;;;;;;5024056;28;20487;-69
2022/11/19 00:55:46;;;;;;;6.63;4.53;;;0.40;99.90;;;;;;5025167;28;20049;-70
2022/11/19 00:58:11;;;;;;;6.95;4.88;;;0.40;99.90;;;;;;5024509;28;20046;-71
2022/11/19 01:00:37;;;;;;;6.47;4.50;;;0.40;99.90;;;;;;5024650;28;20230;-70
2022/11/19 01:03:03;;;;;;;6.75;4.43;;;0.30;99.90;;;;;;5023584;28;20045;-70
2022/11/19 01:05:29;;;;;;;6.20;4.00;;;0.30;99.90;;;;;;5024156;28;20099;-70
2022/11/19 01:07:54;;;;;;;7.07;4.28;;;0.40;99.90;;;;;;5025161;28;20033;-69
2022/11/19 01:10:20;;;;;;;6.88;4.80;;;0.30;99.90;;;;;;5024286;28;20055;-69
2022/11/19 01:15:30;;;;;;;7.03;4.35;;;1.50;99.90;;;;;;5024044;28;20038;-70
2022/11/19 01:17:55;;;;;;;6.97;4.45;;;0.20;99.90;;;;;;5023595;28;20059;-68
2022/11/19 01:20:21;;;;;;;7.90;4.72;;;0.20;99.90;;;;;;5023698;28;20104;-68
2022/11/19 01:22:46;;;;;;;6.25;4.43;;;0.20;99.90;;;;;;5006561;28;20049;-67
2022/11/19 01:25:13;;;;;;;7.28;5.07;;;0.20;99.90;;;;;;5006481;28;20091;-67
2022/11/19 01:27:39;;;;;;;6.90;4.78;;;0.10;99.90;;;;;;5022565;28;20053;-67
2022/11/19 01:30:05;;;;;;;8.15;5.40;;;0.20;99.90;;;;;;5023833;28;20071;-70
2022/11/19 01:32:31;;;;;;;6.45;4.00;;;0.10;99.90;;;;;;5023299;28;20045;-67
2022/11/19 01:34:57;;;;;;;7.22;5.00;;;1.50;99.90;;;;;;5023273;28;20049;-66
2022/11/19 01:37:23;;;;;;;10.88;5.25;;;0.00;99.90;;;;;;5022794;28;20055;-67
2022/11/19 01:39:49;;;;;;;8.00;5.38;;;0.00;99.90;;;;;;5023147;28;20060;-67
2022/11/19 01:42:48;;;;;;;6.70;4.57;;;0.00;99.90;;;;;;5023384;28;20099;-67
2022/11/19 01:45:18;;;;;;;8.23;5.63;;;-0.10;99.90;;;;;;5022546;28;20041;-70
2022/11/19 01:47:44;;;;;;;7.82;5.57;;;-0.10;99.90;;;;;;5023034;28;20041;-66
2022/11/19 01:50:10;;;;;;;7.80;5.05;;;-0.20;99.90;;;;;;5022887;28;20095;-68
2022/11/19 01:52:38;;;;;;;8.55;6.13;;;-0.10;99.90;;;;;;5005814;28;20045;-69
2022/11/19 01:55:06;;;;;;;8.15;5.82;;;-0.20;99.90;;;;;;5023519;28;20084;-66
2022/11/19 01:57:33;;;;;;;9.35;6.07;;;-0.20;99.90;;;;;;5022213;28;20085;-67
2022/11/19 01:59:58;;;;;;;7.85;5.68;;;-0.30;99.90;;;;;;5023648;28;20045;-69
2022/11/19 02:02:24;;;;;;;9.07;5.80;;;-0.30;99.90;;;;;;5023689;28;20052;-68
2022/11/19 02:04:51;;;;;;;8.05;5.90;;;-0.30;99.90;;;;;;5022510;28;20053;-65
2022/11/19 02:07:23;;;;;;;9.30;5.97;;;-0.30;99.90;;;;;;5022333;28;20054;-69
2022/11/19 02:09:49;;;;;;;9.40;6.45;;;-0.30;99.90;;;;;;5022629;28;20091;-68
2022/11/19 02:12:29;;;;;;;8.35;5.53;;;-0.40;99.90;;;;;;5003512;28;20049;-66
2022/11/19 02:15:32;;;;;;;7.78;6.10;;;-0.40;99.90;;;;;;5022333;28;20057;-67
2022/11/19 02:18:19;;;;;;;8.60;6.43;;;-0.40;99.90;;;;;;5022580;28;20145;-66
2022/11/19 02:23:44;;;;;;;8.88;6.28;;;-0.50;99.90;;;;;;4990617;28;20054;-68
2022/11/19 02:26:25;;;;;;;8.73;6.13;;;-0.50;99.90;;;;;;4983413;28;20053;-70
2022/11/19 02:29:00;;;;;;;8.40;6.05;;;-0.60;99.90;;;;;;4997234;28;20050;-70
2022/11/19 02:31:36;;;;;;;8.95;6.10;;;-0.60;99.90;;;;;;5003279;28;20458;-67
2022/11/19 02:34:04;;;;;;;9.50;6.40;;;0.20;99.90;;;;;;5003041;28;20046;-70
2022/11/19 02:36:45;;;;;;;8.80;5.72;;;-0.60;99.90;;;;;;5003421;28;20100;-69
2022/11/19 02:39:30;;;;;;;8.90;6.05;;;-0.70;99.90;;;;;;4984656;28;20058;-69
2022/11/19 02:42:13;;;;;;;9.53;6.20;;;0.90;99.90;;;;;;5002879;28;20387;-69
2022/11/19 02:44:57;;;;;;;8.73;6.40;;;-0.80;99.90;;;;;;5002206;28;20080;-65
2022/11/19 02:47:29;;;;;;;7.53;5.32;;;-0.80;99.90;;;;;;5002357;28;20045;-67
2022/11/19 02:50:01;;;;;;;8.65;6.63;;;-0.80;99.90;;;;;;4985012;28;20057;-69
2022/11/19 02:52:27;;;;;;;9.40;6.05;;;-0.80;99.90;;;;;;5002536;28;20041;-70
2022/11/19 02:54:53;;;;;;;10.45;6.75;;;-0.90;99.90;;;;;;5002517;28;20054;-69
2022/11/19 02:57:19;;;;;;;9.07;6.50;;;-0.90;99.90;;;;;;5000988;28;20044;-69
2022/11/19 03:05:34;;;;;;;8.38;5.97;;;-0.90;99.90;;;;;;5002575;28;20677;-67
2022/11/19 03:08:00;;;;;;;9.90;4.85;;;-0.90;99.90;;;;;;5003010;28;20064;-68
2022/11/19 03:10:42;;;;;;;9.57;6.25;;;-0.90;99.90;;;;;;5001195;28;20038;-70
2022/11/19 03:19:05;;;;;;;10.15;6.47;;;-0.90;99.90;;;;;;5002331;28;20466;-68
2022/11/19 03:21:38;;;;;;;8.25;5.80;;;-1.00;99.90;;;;;;4985517;28;20129;-70
2022/11/19 03:24:10;;;;;;;9.43;6.10;;;-0.10;99.90;;;;;;5005856;28;20050;-65
2022/11/19 03:26:48;;;;;;;10.25;6.63;;;-1.00;99.90;;;;;;5006340;28;20061;-69
2022/11/19 03:29:14;;;;;;;8.27;5.85;;;-1.00;99.90;;;;;;5005688;28;20789;-67
2022/11/19 03:31:46;;;;;;;9.38;6.20;;;-1.00;99.90;;;;;;5006213;28;20491;-67
2022/11/19 03:34:17;;;;;;;8.48;5.43;;;-1.00;99.90;;;;;;4988365;28;20073;-70
2022/11/19 03:36:46;;;;;;;8.90;5.90;;;-1.00;99.90;;;;;;5005552;28;20037;-69
2022/11/19 03:39:17;;;;;;;8.32;6.07;;;-1.20;99.90;;;;;;5004561;28;20061;-69
2022/11/19 03:41:47;;;;;;;9.20;6.43;;;-1.10;99.90;;;;;;4987741;28;20057;-69
2022/11/19 03:44:13;;;;;;;7.32;4.93;;;-1.00;99.90;;;;;;5005081;28;20070;-68
2022/11/19 03:46:39;;;;;;;7.40;5.07;;;0.60;99.90;;;;;;5004828;28;20084;-68
2022/11/19 03:49:08;;;;;;;8.30;5.82;;;-1.10;99.90;;;;;;5005634;28;20046;-66
2022/11/19 03:51:52;;;;;;;9.20;6.28;;;-1.10;99.90;;;;;;5005302;28;20060;-68
2022/11/19 03:54:18;;;;;;;9.23;6.13;;;-1.10;99.90;;;;;;5005443;28;20046;-66
2022/11/19 03:56:46;;;;;;;8.75;6.00;;;-1.20;99.90;;;;;;5006097;28;20046;-67
2022/11/19 03:59:12;;;;;;;8.63;5.75;;;-0.30;99.90;;;;;;5005280;28;20048;-69
2022/11/19 04:01:38;;;;;;;8.45;6.38;;;-1.20;99.90;;;;;;5004920;28;20053;-68
2022/11/19 04:06:48;;;;;;;9.40;5.57;;;-1.20;99.90;;;;;;5002416;28;20050;-66
2022/11/19 04:09:14;;;;;;;10.50;6.20;;;-1.30;99.90;;;;;;5005369;28;20135;-66
2022/11/19 04:11:40;;;;;;;8.68;5.97;;;-1.30;99.90;;;;;;5005566;28;20539;-67
2022/11/19 04:14:05;;;;;;;9.13;5.38;;;-1.30;99.90;;;;;;5005650;28;20050;-66
2022/11/19 04:16:31;;;;;;;8.50;5.93;;;-1.30;99.90;;;;;;5004431;28;20049;-70
2022/11/19 04:18:56;;;;;;;7.82;5.78;;;-0.90;99.90;;;;;;4988207;28;20046;-67
2022/11/19 04:21:22;;;;;;;9.60;6.60;;;-1.40;99.90;;;;;;5005363;28;20054;-67
2022/11/19 04:23:48;;;;;;;10.95;6.95;;;-1.30;99.90;;;;;;5005689;28;20065;-68
2022/11/19 04:26:13;;;;;;;8.60;6.40;;;-1.40;99.90;;;;;;5004273;28;20111;-68
2022/11/19 04:28:40;;;;;;;8.30;5.97;;;-1.30;99.90;;;;;;5004525;28;20088;-69
2022/11/19 04:31:05;;;;;;;8.38;6.10;;;-1.30;99.90;;;;;;5005581;28;20065;-67
2022/11/19 04:33:31;;;;;;;9.15;6.07;;;-1.30;99.90;;;;;;4986972;28;20451;-68
2022/11/19 04:35:57;;;;;;;8.93;6.15;;;-1.30;99.90;;;;;;5002901;28;20046;-70
2022/11/19 04:38:22;;;;;;;9.32;5.93;;;-1.40;99.90;;;;;;5005167;28;20049;-68
2022/11/19 04:40:48;;;;;;;8.40;6.38;;;-1.40;99.90;;;;;;5005357;28;20132;-69
2022/11/19 04:43:13;;;;;;;7.60;5.90;;;-1.40;99.90;;;;;;5002272;28;20522;-64
2022/11/19 04:45:39;;;;;;;9.18;6.28;;;-1.40;99.90;;;;;;5005642;28;20519;-69
2022/11/19 04:48:05;;;;;;;9.95;6.78;;;-1.50;99.90;;;;;;5005241;28;20081;-68
2022/11/19 04:50:30;;;;;;;8.73;6.18;;;-1.60;99.90;;;;;;4987135;28;20081;-66
2022/11/19 04:52:57;;;;;;;9.18;6.38;;;-1.50;99.90;;;;;;5004336;28;20216;-67
2022/11/19 04:55:23;;;;;;;9.52;6.22;;;-1.50;99.90;;;;;;5004880;28;20046;-68
2022/11/19 04:57:50;;;;;;;9.68;6.22;;;-1.50;99.90;;;;;;5004781;28;20042;-68
2022/11/19 05:00:16;;;;;;;10.32;6.07;;;-1.60;99.90;;;;;;5004343;28;20138;-67
2022/11/19 05:02:42;;;;;;;8.50;6.40;;;-1.60;99.90;;;;;;5003793;28;20136;-68
2022/11/19 05:05:08;;;;;;;10.98;4.90;;;-1.60;99.90;;;;;;4987017;28;20412;-66
2022/11/19 05:07:34;;;;;;;8.75;6.35;;;-1.60;99.90;;;;;;5004590;28;20048;-68
2022/11/19 05:09:59;;;;;;;8.23;5.40;;;-1.50;99.90;;;;;;5003910;28;20151;-66
2022/11/19 05:12:25;;;;;;;9.75;6.80;;;-1.60;99.90;;;;;;5002577;28;20172;-69
2022/11/19 05:14:51;;;;;;;10.27;6.45;;;-1.60;99.90;;;;;;5003368;28;20140;-67
2022/11/19 05:17:16;;;;;;;9.23;6.47;;;-1.70;99.90;;;;;;5004900;28;20061;-67
2022/11/19 05:19:42;;;;;;;8.98;6.20;;;-1.80;99.90;;;;;;5003912;28;20436;-67
2022/11/19 05:22:08;;;;;;;9.75;6.85;;;-1.70;99.90;;;;;;5004440;28;20053;-70
2022/11/19 05:24:33;;;;;;;9.63;6.50;;;0.10;99.90;;;;;;5004403;28;20501;-69
2022/11/19 05:26:59;;;;;;;10.35;6.70;;;-1.60;99.90;;;;;;5003598;28;20042;-70
2022/11/19 05:29:24;;;;;;;9.68;5.43;;;-1.70;99.90;;;;;;5003150;28;20471;-69
2022/11/19 05:31:50;;;;;;;12.38;6.97;;;-1.60;99.90;;;;;;5004321;28;20074;-70
2022/11/19 05:34:16;;;;;;;8.75;6.20;;;-1.80;99.90;;;;;;5004004;28;20512;-69
2022/11/19 05:36:41;;;;;;;8.52;6.30;;;-1.70;99.90;;;;;;5004140;28;20504;-69
2022/11/19 05:39:07;;;;;;;9.80;6.65;;;-1.70;99.90;;;;;;5002852;28;20496;-69
2022/11/19 05:41:32;;;;;;;9.00;6.70;;;-1.70;99.90;;;;;;5003026;28;20056;-70
2022/11/19 05:43:58;;;;;;;10.82;7.50;;;-1.80;99.90;;;;;;5002212;28;20042;-70
2022/11/19 05:46:24;;;;;;;10.55;6.95;;;-1.70;99.90;;;;;;5002800;28;20132;-69
2022/11/19 05:48:49;;;;;;;10.43;6.55;;;-1.80;99.90;;;;;;5003865;28;20038;-67
2022/11/19 05:51:15;;;;;;;10.82;6.97;;;-1.70;99.90;;;;;;5004072;28;20034;-66
2022/11/19 05:53:42;;;;;;;10.15;6.85;;;-1.80;99.90;;;;;;5004096;28;20085;-69
2022/11/19 05:56:07;;;;;;;10.00;7.20;;;-1.90;99.90;;;;;;5002832;28;20050;-66
2022/11/19 05:58:33;;;;;;;9.85;7.05;;;-1.90;99.90;;;;;;5002438;28;20044;-65
2022/11/19 06:00:59;;;;;;;10.02;6.75;;;-1.90;99.90;;;;;;5003144;28;20048;-66
2022/11/19 06:03:25;;;;;;;9.35;6.93;;;-1.80;99.90;;;;;;5002914;28;20038;-67
2022/11/19 06:05:51;;;;;;;10.43;7.20;;;-1.80;99.90;;;;;;5001241;28;20096;-67
2022/11/19 06:08:17;;;;;;;9.25;6.35;;;-1.90;99.90;;;;;;5002325;28;20049;-65
2022/11/19 06:10:42;;;;;;;11.15;7.05;;;-1.90;99.90;;;;;;5002733;28;20109;-69
2022/11/19 06:13:09;;;;;;;8.88;6.70;;;-1.90;99.90;;;;;;5000705;28;20144;-67
2022/11/19 06:15:35;;;;;;;9.50;6.82;;;-1.90;99.90;;;;;;5002632;28;20065;-69
2022/11/19 06:18:00;;;;;;;13.40;7.13;;;-1.90;99.90;;;;;;5002602;28;20129;-69
2022/11/19 06:20:26;;;;;;;12.23;7.28;;;-1.80;99.90;;;;;;5002464;28;20118;-70
2022/11/19 06:22:52;;;;;;;10.35;7.43;;;-2.00;99.90;;;;;;5000676;28;20104;-69
2022/11/19 06:25:17;;;;;;;10.57;7.57;;;-1.90;99.90;;;;;;5003304;28;20058;-70
2022/11/19 06:27:43;;;;;;;10.80;7.20;;;-2.00;99.90;;;;;;5002563;28;20416;-69
2022/11/19 06:30:09;;;;;;;8.50;5.68;;;-1.90;99.90;;;;;;5002742;28;20464;-67
2022/11/19 06:32:35;;;;;;;9.30;6.65;;;-1.90;99.90;;;;;;5002107;28;20108;-69
2022/11/19 06:35:01;;;;;;;9.40;6.80;;;-2.00;99.90;;;;;;5003158;28;20042;-66
2022/11/19 06:37:26;;;;;;;9.82;7.40;;;-1.90;99.90;;;;;;5002544;28;20041;-68
2022/11/19 06:39:54;;;;;;;10.02;7.05;;;-2.00;99.90;;;;;;5002712;28;20045;-67
2022/11/19 06:42:35;;;;;;;10.98;7.55;;;-2.00;99.90;;;;;;5002189;28;20234;-67
2022/11/19 06:45:09;;;;;;;8.73;5.95;;;-2.00;99.90;;;;;;5003200;28;20377;-66
2022/11/19 06:47:35;;;;;;;9.85;7.10;;;-2.00;99.90;;;;;;5001685;28;20042;-67
2022/11/19 06:50:01;;;;;;;11.93;7.50;;;-2.10;99.90;;;;;;5002746;28;20080;-69
2022/11/19 06:52:27;;;;;;;10.20;7.25;;;-2.00;99.90;;;;;;5002649;28;20077;-68
2022/11/19 06:54:52;;;;;;;10.15;7.38;;;-2.00;99.90;;;;;;5001123;28;20042;-67
2022/11/19 06:57:18;;;;;;;10.30;7.47;;;-2.00;99.90;;;;;;5001224;28;20088;-69
2022/11/19 06:59:44;;;;;;;10.73;7.45;;;-2.00;99.90;;;;;;5002234;28;20045;-67
2022/11/19 07:02:12;;;;;;;9.18;6.93;;;-2.00;99.90;;;;;;5001011;28;20095;-67
2022/11/19 07:04:38;;;;;;;10.30;7.50;;;-1.10;99.90;;;;;;5000462;28;20037;-67
2022/11/19 07:07:04;;;;;;;10.32;7.32;;;-2.00;99.90;;;;;;5001990;28;20042;-68
2022/11/19 07:09:30;;;;;;;11.52;7.60;;;-2.00;99.90;;;;;;5002593;28;20582;-68
2022/11/19 07:11:56;;;;;;;9.70;7.55;;;-2.00;99.90;;;;;;5001686;28;20042;-66
2022/11/19 07:14:21;;;;;;;9.77;7.47;;;-2.10;99.90;;;;;;5002605;28;20050;-66
2022/11/19 07:16:47;;;;;;;11.50;7.28;;;-2.00;99.90;;;;;;5003266;28;20539;-67
2022/11/19 07:19:13;;;;;;;10.93;7.82;;;-2.10;99.90;;;;;;5003132;28;20112;-68
2022/11/19 07:21:38;;;;;;;11.00;7.60;;;-2.00;99.90;;;;;;5001875;28;20061;-66
2022/11/19 07:24:07;;;;;;;12.23;7.60;;;-2.00;99.90;;;;;;5002982;28;20054;-68
2022/11/19 07:26:34;;;;;;;11.93;7.38;;;-2.00;99.90;;;;;;5001583;28;20389;-67
2022/11/19 07:29:02;;;;;;;11.35;7.90;;;-2.00;99.90;;;;;;5002228;28;20049;-67
2022/11/19 07:31:28;;;;;;;10.70;7.88;;;-2.10;99.90;;;;;;5001283;28;20070;-67
2022/11/19 07:33:54;;;;;;;11.77;7.85;;;-2.00;99.90;;;;;;4984939;28;20385;-66
2022/11/19 07:36:20;;;;;;;13.13;8.20;;;-2.00;99.90;;;;;;5002116;28;20044;-64
2022/11/19 07:38:46;;;;;;;10.75;7.32;;;-1.80;99.90;;;;;;5001371;28;20730;-64
2022/11/19 07:43:56;;;;;;;10.23;7.05;;;-1.80;99.90;;;;;;5001770;28;20145;-64
2022/11/19 07:46:22;;;;;;;11.02;7.95;;;-2.00;99.90;;;;;;5000794;28;20137;-65
2022/11/19 07:48:52;;;;;;;10.70;7.07;;;-2.00;99.90;;;;;;5002627;28;20056;-64
2022/11/19 07:51:17;;;;;;;11.68;7.93;;;-2.00;99.90;;;;;;5002888;28;20766;-64
2022/11/19 07:53:43;;;;;;;12.05;8.27;;;-2.00;99.90;;;;;;5001282;28;20060;-64
2022/11/19 07:56:08;;;;;;;10.52;8.00;;;-2.00;99.90;;;;;;5000752;28;20049;-64
2022/11/19 07:58:34;;;;;;;10.93;7.85;;;-1.90;99.90;;;;;;5000884;28;20073;-64
2022/11/19 08:01:11;;;;;;;12.57;8.35;;;-1.90;99.90;;;;;;5001488;28;20403;-64
2022/11/19 08:03:37;;;;;;;11.82;8.40;;;-1.80;99.90;;;;;;5002156;28;20048;-64
2022/11/19 08:06:05;;;;;;;11.13;7.88;;;0.30;99.90;;;;;;5001420;28;20046;-64
2022/11/19 08:08:32;;;;;;;11.68;7.53;;;-1.80;99.90;;;;;;4985735;28;20091;-65
2022/11/19 08:11:06;;;;;;;13.68;8.48;;;-1.40;99.90;;;;;;5005003;28;20377;-65
2022/11/19 08:13:32;;;;;;;10.95;7.80;;;-1.80;99.90;;;;;;5005016;28;20104;-65
2022/11/19 08:16:03;;;;;;;11.80;7.72;;;-1.80;99.90;;;;;;5005316;28;20112;-64
2022/11/19 08:18:29;;;;;;;11.07;7.78;;;-1.70;99.90;;;;;;5005190;28;20064;-65
2022/11/19 08:20:55;;;;;;;12.23;8.43;;;-1.50;99.90;;;;;;5005554;28;20046;-65
2022/11/19 08:23:23;;;;;;;11.35;8.00;;;0.00;99.90;;;;;;5005809;28;20050;-64
2022/11/19 08:25:49;;;;;;;12.65;8.90;;;-1.50;99.90;;;;;;4987813;28;20275;-65
2022/11/19 08:28:15;;;;;;;11.68;8.20;;;0.50;99.90;;;;;;5004843;28;20093;-65
2022/11/19 08:30:41;;;;;;;11.82;7.97;;;-1.50;99.90;;;;;;5004941;28;20112;-65
2022/11/19 08:33:07;;;;;;;11.45;8.88;;;-1.50;99.90;;;;;;5005093;28;20660;-65
2022/11/19 08:35:34;;;;;;;11.00;8.02;;;-1.40;99.90;;;;;;5004663;28;20528;-65
2022/11/19 08:38:00;;;;;;;10.95;7.95;;;-1.20;99.90;;;;;;5004918;28;20095;-65
2022/11/19 08:40:26;;;;;;;11.93;8.48;;;-1.20;99.90;;;;;;5005138;28;20432;-65
2022/11/19 08:43:00;;;;;;;11.25;7.90;;;-0.70;99.90;;;;;;5004521;28;20053;-65
2022/11/19 08:45:30;;;;;;;12.00;8.85;;;-1.10;99.90;;;;;;5004974;28;20038;-66
2022/11/19 08:47:57;;;;;;;10.50;7.38;;;-1.00;99.90;;;;;;5004955;28;20095;-65
2022/11/19 08:50:24;;;;;;;11.75;9.07;;;-1.00;99.90;;;;;;5004479;28;20042;-65
2022/11/19 08:53:02;;;;;;;11.10;8.07;;;-0.70;99.90;;;;;;5005029;28;20046;-65
2022/11/19 08:55:29;;;;;;;11.32;8.35;;;-0.90;99.90;;;;;;4987081;28;20120;-65
2022/11/19 08:58:03;;;;;;;12.27;8.45;;;-0.70;99.90;;;;;;5003120;28;20081;-65
2022/11/19 09:00:30;;;;;;;11.47;7.73;;;-0.60;99.90;;;;;;4987265;28;20130;-65
2022/11/19 09:02:56;;;;;;;12.43;8.60;;;-0.20;99.90;;;;;;5004938;28;20088;-65
2022/11/19 09:05:22;;;;;;;12.52;8.35;;;-0.50;99.90;;;;;;5003530;28;20038;-65
2022/11/19 09:07:48;;;;;;;10.23;7.93;;;-0.30;99.90;;;;;;5004684;28;20124;-65
2022/11/19 09:10:14;;;;;;;12.07;8.50;;;-0.20;99.90;;;;;;5004956;28;20141;-65
2022/11/19 09:12:39;;;;;;;13.77;8.45;;;-0.20;99.90;;;;;;4986189;28;20045;-65
2022/11/19 09:15:07;;;;;;;10.90;8.55;;;-0.10;99.90;;;;;;5003779;28;20086;-65
2022/11/19 09:17:32;;;;;;;10.32;8.13;;;0.10;99.90;;;;;;5004330;28;20049;-65
2022/11/19 09:19:58;;;;;;;10.50;7.72;;;0.10;99.90;;;;;;5003599;28;20046;-65
2022/11/19 09:22:24;;;;;;;10.52;8.05;;;2.20;99.90;;;;;;5004127;28;20528;-65
2022/11/19 09:24:49;;;;;;;10.93;7.82;;;0.40;99.90;;;;;;5004007;28;20416;-65
2022/11/19 09:27:15;;;;;;;10.70;8.10;;;0.70;99.90;;;;;;5003812;28;20060;-65
2022/11/19 09:29:40;;;;;;;10.30;7.53;;;1.60;99.90;;;;;;4986846;28;20527;-65
2022/11/19 09:32:06;;;;;;;12.20;7.93;;;2.10;99.90;;;;;;5003532;28;20049;-65
2022/11/19 09:34:33;;;;;;;8.88;6.93;;;3.10;99.90;;;;;;5004105;28;20600;-65
2022/11/19 09:37:00;;;;;;;9.13;7.38;;;4.50;99.90;;;;;;5003957;28;20042;-65
2022/11/19 09:39:26;;;;;;;34.83;7.45;;;4.50;99.90;;;;;;5004677;28;20373;-65
2022/11/19 09:42:22;;;;;;;11.57;7.20;;;4.90;99.90;;;;;;5002577;28;20052;-65
2022/11/19 09:45:11;;;;;;;8.75;7.30;;;5.40;99.90;;;;;;5003697;28;20049;-65
2022/11/19 09:48:07;;;;;;;9.00;6.90;;;5.90;99.90;;;;;;4975944;28;20416;-66
2022/11/19 09:50:45;;;;;;;9.85;7.18;;;5.60;99.90;;;;;;4986338;28;20049;-65
2022/11/19 09:53:16;;;;;;;8.32;6.65;;;5.70;99.90;;;;;;5004041;28;20046;-65
2022/11/19 09:55:44;;;;;;;8.75;7.10;;;5.60;99.90;;;;;;5002975;28;20038;-66
2022/11/19 09:58:38;;;;;;;8.63;7.18;;;7.30;99.90;;;;;;5002915;28;20103;-65
2022/11/19 10:01:04;;;;;;;8.85;6.95;;;6.00;99.90;;;;;;5002616;28;20342;-66
2022/11/19 10:03:31;;;;;;;7.60;6.50;;;5.80;99.90;;;;;;5003939;28;20046;-66
2022/11/19 10:06:15;;;;;;;8.73;7.00;;;7.00;99.90;;;;;;5003468;28;20073;-65
2022/11/19 10:09:01;;;;;;;8.95;6.53;;;6.80;99.90;;;;;;5003369;28;20523;-66
2022/11/19 10:11:33;;;;;;;11.57;6.85;;;7.60;99.90;;;;;;4985117;28;20062;-65
2022/11/19 10:14:10;;;;;;;7.88;6.63;;;7.30;99.90;;;;;;5003711;28;20046;-66
2022/11/19 10:17:09;;;;;;;7.95;6.80;;;6.70;99.90;;;;;;5001980;28;20042;-65
2022/11/19 10:20:26;;;;;;;10.38;6.20;;;7.30;99.90;;;;;;5003495;28;20069;-65
2022/11/19 10:23:04;;;;;;;7.82;6.03;;;7.20;99.90;;;;;;5003352;28;20050;-65
2022/11/19 10:25:41;;;;;;;9.60;6.40;;;7.90;99.90;;;;;;5002582;28;20085;-65
2022/11/19 10:28:25;;;;;;;12.73;5.90;;;8.10;99.90;;;;;;5002907;28;20655;-65
2022/11/19 10:30:54;;;;;;;8.07;6.30;;;7.60;99.90;;;;;;5002049;28;20042;-66
2022/11/19 10:33:28;;;;;;;7.32;6.20;;;8.60;99.90;;;;;;5003133;28;20312;-66
2022/11/19 10:35:59;;;;;;;9.23;6.28;;;7.90;99.90;;;;;;5003004;28;20121;-66
2022/11/19 10:38:44;;;;;;;8.13;6.40;;;8.00;99.90;;;;;;5002296;28;20104;-66
2022/11/19 10:41:38;;;;;;;7.53;6.05;;;8.70;99.90;;;;;;5002840;28;20046;-66
2022/11/19 10:44:42;;;;;;;7.45;6.10;;;7.90;99.90;;;;;;5002860;28;20054;-66
2022/11/19 10:47:27;;;;;;;7.35;6.25;;;8.10;99.90;;;;;;5002920;28;20050;-66
2022/11/19 10:49:54;;;;;;;6.78;5.90;;;8.70;99.90;;;;;;5002602;28;20073;-65
2022/11/19 10:52:41;;;;;;;7.47;6.28;;;10.00;99.90;;;;;;5002021;28;20046;-65
2022/11/19 10:55:36;;;;;;;7.05;6.05;;;9.10;99.90;;;;;;4985306;28;20049;-66
2022/11/19 10:58:14;;;;;;;6.72;5.82;;;8.80;99.90;;;;;;4995235;28;20459;-65
2022/11/19 11:00:41;;;;;;;6.82;5.55;;;8.90;99.90;;;;;;5002826;28;20052;-66
2022/11/19 11:03:26;;;;;;;6.63;5.50;;;8.70;99.90;;;;;;5002776;28;20038;-66
2022/11/19 11:05:56;;;;;;;7.38;5.93;;;9.50;99.90;;;;;;4984965;28;20050;-66
2022/11/19 11:08:22;;;;;;;6.78;5.35;;;9.40;99.90;;;;;;4965643;28;20185;-65
2022/11/19 11:10:50;;;;;;;6.50;5.25;;;9.30;99.90;;;;;;4983074;28;20113;-66
2022/11/19 11:16:10;;;;;;;7.75;5.70;;;8.90;99.90;;;;;;4983757;28;20054;-66
2022/11/19 11:18:39;;;;;;;6.38;5.00;;;8.70;99.90;;;;;;4966273;28;20058;-66
2022/11/19 11:21:11;;;;;;;6.35;5.13;;;8.50;99.90;;;;;;4982110;28;20100;-66
2022/11/19 11:23:50;;;;;;;8.07;5.10;;;8.20;99.90;;;;;;4983724;28;20156;-66
2022/11/19 11:26:23;;;;;;;6.60;5.25;;;8.70;99.90;;;;;;4982373;28;20116;-65
2022/11/19 11:29:00;;;;;;;7.97;4.90;;;8.60;99.90;;;;;;4983025;28;20054;-66
2022/11/19 11:31:43;;;;;;;8.30;5.05;;;8.20;99.90;;;;;;4982836;28;20077;-66
2022/11/19 11:34:27;;;;;;;6.13;5.05;;;8.20;99.90;;;;;;4982761;28;20042;-66
2022/11/19 11:36:54;;;;;;;6.57;5.32;;;8.20;99.90;;;;;;4982451;28;20039;-66
2022/11/19 11:39:29;;;;;;;6.10;5.07;;;8.00;99.90;;;;;;4981898;28;20047;-66
2022/11/19 11:41:56;;;;;;;6.05;4.78;;;8.20;99.90;;;;;;4964453;28;20056;-66
2022/11/19 11:44:25;;;;;;;5.53;4.40;;;7.80;99.90;;;;;;4986090;28;20073;-66
2022/11/19 11:46:54;;;;;;;5.68;4.70;;;7.60;99.90;;;;;;4985615;28;20050;-66
2022/11/19 11:49:30;;;;;;;6.40;4.32;;;7.50;99.90;;;;;;4968386;28;20072;-66
2022/11/19 11:52:21;;;;;;;5.95;4.45;;;7.50;99.90;;;;;;4985723;28;20047;-65
2022/11/19 11:54:58;;;;;;;6.75;4.60;;;7.50;99.90;;;;;;4968590;28;20066;-66
2022/11/19 11:57:31;;;;;;;6.32;4.57;;;7.20;99.90;;;;;;4968009;28;20449;-66
2022/11/19 11:59:58;;;;;;;6.05;4.60;;;7.00;99.90;;;;;;4986330;28;20050;-65
2022/11/19 12:02:30;;;;;;;6.72;4.70;;;7.00;99.90;;;;;;4986586;28;20066;-66
2022/11/19 12:04:59;;;;;;;5.13;4.30;;;6.90;99.90;;;;;;4994479;28;20050;-66
2022/11/19 12:07:59;;;;;;;5.07;4.28;;;7.20;99.90;;;;;;5005197;28;20038;-66
2022/11/19 12:10:33;;;;;;;6.50;4.40;;;7.40;99.90;;;;;;4987335;28;20058;-66
2022/11/19 12:13:43;;;;;;;5.38;4.68;;;7.50;99.90;;;;;;5004110;28;20042;-66
2022/11/19 12:16:31;;;;;;;12.80;5.45;;;7.30;99.90;;;;;;4926049;28;20057;-66
2022/11/19 12:19:09;;;;;;;9.48;5.68;;;7.10;99.90;;;;;;5004335;28;20077;-66
2022/11/19 12:21:53;;;;;;;6.38;4.97;;;7.00;99.90;;;;;;5005135;28;20076;-65
2022/11/19 12:24:46;;;;;;;5.47;4.43;;;6.90;99.90;;;;;;5004682;28;20085;-66
2022/11/19 12:27:49;;;;;;;6.07;4.72;;;6.70;99.90;;;;;;5003611;28;20042;-66
2022/11/19 12:30:22;;;;;;;6.72;5.13;;;6.50;99.90;;;;;;5004195;28;20050;-66
2022/11/19 12:33:12;;;;;;;7.65;4.85;;;6.90;99.90;;;;;;5004655;28;20124;-66
2022/11/19 12:35:41;;;;;;;6.47;5.00;;;6.50;99.90;;;;;;5005164;28;20088;-66
2022/11/19 12:38:36;;;;;;;6.13;4.57;;;6.40;99.90;;;;;;5005177;28;20111;-66
2022/11/19 12:41:14;;;;;;;7.43;5.40;;;6.30;99.90;;;;;;4986945;28;20201;-66
2022/11/19 12:44:00;;;;;;;7.57;5.18;;;6.50;99.90;;;;;;5005599;28;20045;-66
2022/11/19 12:46:41;;;;;;;6.40;5.10;;;6.40;99.90;;;;;;5005807;28;20434;-66
2022/11/19 12:49:16;;;;;;;6.40;5.13;;;6.50;99.90;;;;;;5005625;28;20049;-66
2022/11/19 12:51:52;;;;;;;6.70;5.28;;;6.20;99.90;;;;;;5004962;28;20030;-65
2022/11/19 12:54:34;;;;;;;7.07;5.18;;;6.90;99.90;;;;;;5004915;28;20081;-66
2022/11/19 12:57:28;;;;;;;7.72;5.20;;;6.40;99.90;;;;;;5004340;28;20120;-65
2022/11/19 13:00:04;;;;;;;6.53;5.22;;;6.00;99.90;;;;;;5005063;28;20120;-66
2022/11/19 13:02:50;;;;;;;6.88;5.32;;;5.90;99.90;;;;;;5003978;28;20054;-65
2022/11/19 13:05:26;;;;;;;7.32;5.65;;;6.20;99.90;;;;;;5004255;28;20551;-65
2022/11/19 13:08:12;;;;;;;6.20;5.07;;;6.50;99.90;;;;;;5004032;28;20236;-66
2022/11/19 13:11:03;;;;;;;6.70;5.50;;;6.20;99.90;;;;;;4986797;28;20052;-65
2022/11/19 13:13:29;;;;;;;6.35;5.40;;;6.20;99.90;;;;;;4993763;28;20112;-65
2022/11/19 13:16:20;;;;;;;6.70;5.50;;;6.30;99.90;;;;;;5005043;28;20046;-65
2022/11/19 13:18:53;;;;;;;6.55;5.28;;;6.40;99.90;;;;;;5004275;28;20120;-65
2022/11/19 13:21:24;;;;;;;6.53;5.00;;;6.80;99.90;;;;;;5004437;28;20053;-65
2022/11/19 13:23:52;;;;;;;6.15;4.95;;;6.00;99.90;;;;;;5004467;28;20057;-65
2022/11/19 13:26:37;;;;;;;8.40;5.38;;;7.30;99.90;;;;;;5003207;28;20034;-66
2022/11/19 13:29:21;;;;;;;5.75;4.68;;;6.50;99.90;;;;;;5004285;28;20057;-65
2022/11/19 13:32:01;;;;;;;5.60;4.57;;;6.80;99.90;;;;;;5004309;28;20547;-65
2022/11/19 13:34:37;;;;;;;6.47;5.20;;;6.10;99.90;;;;;;5004079;28;20866;-65
2022/11/19 13:37:18;;;;;;;7.05;5.28;;;6.00;99.90;;;;;;5004094;28;20057;-65